createdAt,value
2022-10-23T00:00:10.153Z,995.29
2022-10-23T00:00:20.436Z,995.29
2022-10-23T00:00:30.740Z,995.29
2022-10-23T00:00:41.137Z,995.29
2022-10-23T00:00:51.459Z,995.28
2022-10-23T00:01:01.712Z,995.27
2022-10-23T00:01:11.972Z,995.27
2022-10-23T00:01:22.265Z,995.26
2022-10-23T00:01:32.544Z,995.26
2022-10-23T00:01:42.793Z,995.27
2022-10-23T00:01:53.058Z,995.27
2022-10-23T00:02:03.366Z,995.27
2022-10-23T00:02:13.694Z,995.27
2022-10-23T00:02:24.004Z,995.27
2022-10-23T00:02:34.402Z,995.27
2022-10-23T00:02:45.157Z,995.27
2022-10-23T00:02:55.037Z,995.27
2022-10-23T00:03:05.268Z,995.27
2022-10-23T00:03:15.565Z,995.26
2022-10-23T00:03:25.827Z,995.26
2022-10-23T00:03:36.067Z,995.26
2022-10-23T00:03:46.329Z,995.26
2022-10-23T00:03:56.594Z,995.26
2022-10-23T00:04:06.856Z,995.25
2022-10-23T00:04:17.135Z,995.25
2022-10-23T00:04:27.392Z,995.25
2022-10-23T00:04:37.648Z,995.25
2022-10-23T00:04:47.903Z,995.24
2022-10-23T00:04:58.199Z,995.24
2022-10-23T00:05:08.450Z,995.24
2022-10-23T00:05:18.689Z,995.23
2022-10-23T00:05:28.957Z,995.23
2022-10-23T00:05:39.230Z,995.23
2022-10-23T00:05:49.501Z,995.23
2022-10-23T00:05:59.741Z,995.23
2022-10-23T00:06:10.003Z,995.22
2022-10-23T00:06:20.274Z,995.22
2022-10-23T00:06:30.578Z,995.22
2022-10-23T00:06:40.824Z,995.23
2022-10-23T00:06:51.078Z,995.23
2022-10-23T00:07:01.393Z,995.22
2022-10-23T00:07:11.663Z,995.21
2022-10-23T00:07:21.963Z,995.21
2022-10-23T00:07:32.209Z,995.21
2022-10-23T00:07:42.501Z,995.21
2022-10-23T00:07:52.741Z,995.21
2022-10-23T00:08:03.042Z,995.21
2022-10-23T00:08:13.310Z,995.20
2022-10-23T00:08:23.540Z,995.20
2022-10-23T00:08:33.796Z,995.21
2022-10-23T00:08:44.067Z,995.21
2022-10-23T00:08:54.345Z,995.20
2022-10-23T00:09:04.596Z,995.20
2022-10-23T00:09:14.860Z,995.20
2022-10-23T00:09:25.119Z,995.20
2022-10-23T00:09:35.385Z,995.20
2022-10-23T00:09:45.642Z,995.20
2022-10-23T00:09:55.904Z,995.20
2022-10-23T00:10:06.187Z,995.19
2022-10-23T00:10:16.451Z,995.19
2022-10-23T00:10:26.697Z,995.19
2022-10-23T00:10:36.959Z,995.19
2022-10-23T00:10:47.246Z,995.19
2022-10-23T00:10:57.492Z,995.18
2022-10-23T00:11:07.756Z,995.18
2022-10-23T00:11:18.017Z,995.18
2022-10-23T00:11:28.315Z,995.18
2022-10-23T00:11:38.570Z,995.19
2022-10-23T00:11:48.858Z,995.19
2022-10-23T00:11:59.104Z,995.19
2022-10-23T00:12:09.360Z,995.19
2022-10-23T00:12:19.626Z,995.19
2022-10-23T00:12:29.900Z,995.19
2022-10-23T00:12:40.592Z,995.19
2022-10-23T00:12:50.578Z,995.18
2022-10-23T00:13:00.842Z,995.18
2022-10-23T00:13:11.103Z,995.18
2022-10-23T00:13:21.373Z,995.18
2022-10-23T00:13:31.635Z,995.17
2022-10-23T00:13:41.889Z,995.17
2022-10-23T00:13:52.158Z,995.17
2022-10-23T00:14:02.428Z,995.17
2022-10-23T00:14:12.701Z,995.17
2022-10-23T00:14:22.954Z,995.17
2022-10-23T00:14:33.212Z,995.17
2022-10-23T00:14:43.475Z,995.17
2022-10-23T00:14:53.819Z,995.17
2022-10-23T00:15:04.121Z,995.16
2022-10-23T00:15:14.392Z,995.16
2022-10-23T00:15:24.623Z,995.16
2022-10-23T00:15:34.883Z,995.16
2022-10-23T00:15:45.161Z,995.16
2022-10-23T00:15:55.438Z,995.15
2022-10-23T00:16:05.693Z,995.15
2022-10-23T00:16:15.956Z,995.15
2022-10-23T00:16:26.248Z,995.14
2022-10-23T00:16:36.509Z,995.13
2022-10-23T00:16:46.769Z,995.13
2022-10-23T00:16:57.035Z,995.13
2022-10-23T00:17:07.293Z,995.13
2022-10-23T00:17:17.557Z,995.13
2022-10-23T00:17:27.824Z,995.12
2022-10-23T00:17:38.082Z,995.12
2022-10-23T00:17:48.408Z,995.12
2022-10-23T00:17:58.667Z,995.13
2022-10-23T00:18:08.895Z,995.13
2022-10-23T00:18:19.167Z,995.12
2022-10-23T00:18:29.476Z,995.12
2022-10-23T00:18:39.713Z,995.12
2022-10-23T00:18:49.971Z,995.12
2022-10-23T00:19:00.230Z,995.13
2022-10-23T00:19:10.527Z,995.12
2022-10-23T00:19:20.796Z,995.13
2022-10-23T00:19:31.056Z,995.13
2022-10-23T00:19:41.299Z,995.13
2022-10-23T00:19:51.554Z,995.13
2022-10-23T00:20:01.805Z,995.13
2022-10-23T00:20:12.075Z,995.13
2022-10-23T00:20:22.406Z,995.14
2022-10-23T00:20:32.648Z,995.14
2022-10-23T00:20:42.909Z,995.15
2022-10-23T00:20:53.189Z,995.15
2022-10-23T00:21:03.441Z,995.16
2022-10-23T00:21:13.690Z,995.16
2022-10-23T00:21:23.954Z,995.16
2022-10-23T00:21:34.219Z,995.16
2022-10-23T00:21:44.494Z,995.17
2022-10-23T00:21:54.769Z,995.17
2022-10-23T00:22:05.020Z,995.17
2022-10-23T00:22:15.306Z,995.17
2022-10-23T00:22:25.553Z,995.17
2022-10-23T00:22:35.820Z,995.17
2022-10-23T00:22:46.148Z,995.17
2022-10-23T00:22:56.393Z,995.17
2022-10-23T00:23:06.650Z,995.16
2022-10-23T00:23:16.904Z,995.16
2022-10-23T00:23:27.167Z,995.16
2022-10-23T00:23:37.424Z,995.16
2022-10-23T00:23:47.681Z,995.16
2022-10-23T00:23:58.043Z,995.16
2022-10-23T00:24:18.731Z,995.16
2022-10-23T00:24:29.005Z,995.16
2022-10-23T00:24:39.247Z,995.16
2022-10-23T00:24:49.506Z,995.15
2022-10-23T00:24:59.771Z,995.15
2022-10-23T00:25:10.046Z,995.14
2022-10-23T00:25:20.330Z,995.14
2022-10-23T00:25:30.599Z,995.13
2022-10-23T00:25:40.838Z,995.13
2022-10-23T00:25:51.097Z,995.13
2022-10-23T00:26:01.360Z,995.13
2022-10-23T00:26:11.633Z,995.13
2022-10-23T00:26:21.885Z,995.14
2022-10-23T00:26:32.160Z,995.14
2022-10-23T00:26:42.513Z,995.14
2022-10-23T00:26:52.784Z,995.15
2022-10-23T00:27:03.001Z,995.15
2022-10-23T00:27:13.285Z,995.15
2022-10-23T00:27:23.548Z,995.15
2022-10-23T00:27:33.803Z,995.14
2022-10-23T00:27:44.567Z,995.14
2022-10-23T00:27:54.368Z,995.14
2022-10-23T00:28:04.628Z,995.13
2022-10-23T00:28:14.906Z,995.13
2022-10-23T00:28:25.184Z,995.13
2022-10-23T00:28:35.451Z,995.13
2022-10-23T00:28:45.700Z,995.13
2022-10-23T00:28:55.971Z,995.13
2022-10-23T00:29:06.227Z,995.13
2022-10-23T00:29:16.484Z,995.13
2022-10-23T00:29:26.757Z,995.13
2022-10-23T00:29:37.020Z,995.13
2022-10-23T00:29:47.293Z,995.13
2022-10-23T00:29:57.545Z,995.13
2022-10-23T00:30:07.811Z,995.13
2022-10-23T00:30:18.073Z,995.13
2022-10-23T00:30:28.358Z,995.14
2022-10-23T00:30:38.601Z,995.13
2022-10-23T00:30:48.869Z,995.13
2022-10-23T00:30:59.144Z,995.13
2022-10-23T00:31:09.434Z,995.13
2022-10-23T00:31:19.676Z,995.13
2022-10-23T00:31:29.941Z,995.12
2022-10-23T00:31:40.201Z,995.12
2022-10-23T00:31:50.508Z,995.12
2022-10-23T00:32:00.769Z,995.13
2022-10-23T00:32:11.017Z,995.13
2022-10-23T00:32:21.341Z,995.13
2022-10-23T00:32:41.956Z,995.13
2022-10-23T00:32:52.198Z,995.13
2022-10-23T00:33:02.463Z,995.13
2022-10-23T00:33:12.730Z,995.14
2022-10-23T00:33:22.983Z,995.14
2022-10-23T00:33:33.247Z,995.14
2022-10-23T00:33:43.519Z,995.14
2022-10-23T00:33:53.777Z,995.14
2022-10-23T00:34:04.089Z,995.14
2022-10-23T00:34:14.330Z,995.14
2022-10-23T00:34:24.590Z,995.14
2022-10-23T00:34:34.846Z,995.14
2022-10-23T00:34:45.129Z,995.14
2022-10-23T00:34:55.394Z,995.14
2022-10-23T00:35:05.644Z,995.15
2022-10-23T00:35:15.906Z,995.15
2022-10-23T00:35:26.157Z,995.15
2022-10-23T00:35:36.440Z,995.15
2022-10-23T00:35:46.715Z,995.15
2022-10-23T00:35:56.986Z,995.15
2022-10-23T00:36:07.247Z,995.15
2022-10-23T00:36:17.490Z,995.15
2022-10-23T00:36:27.754Z,995.15
2022-10-23T00:36:38.024Z,995.16
2022-10-23T00:36:48.293Z,995.16
2022-10-23T00:36:58.556Z,995.15
2022-10-23T00:37:08.821Z,995.15
2022-10-23T00:37:19.084Z,995.15
2022-10-23T00:37:29.335Z,995.15
2022-10-23T00:37:39.804Z,995.14
2022-10-23T00:37:50.073Z,995.14
2022-10-23T00:38:00.279Z,995.14
2022-10-23T00:38:10.549Z,995.14
2022-10-23T00:38:20.810Z,995.14
2022-10-23T00:38:31.116Z,995.14
2022-10-23T00:38:41.357Z,995.13
2022-10-23T00:38:51.632Z,995.13
2022-10-23T00:39:01.880Z,995.14
2022-10-23T00:39:12.141Z,995.14
2022-10-23T00:39:22.417Z,995.14
2022-10-23T00:39:32.685Z,995.15
2022-10-23T00:39:42.946Z,995.15
2022-10-23T00:39:53.218Z,995.15
2022-10-23T00:40:03.471Z,995.15
2022-10-23T00:40:13.736Z,995.15
2022-10-23T00:40:24.007Z,995.15
2022-10-23T00:40:34.284Z,995.15
2022-10-23T00:40:44.595Z,995.15
2022-10-23T00:40:54.859Z,995.15
2022-10-23T00:41:05.102Z,995.15
2022-10-23T00:41:15.356Z,995.15
2022-10-23T00:41:25.632Z,995.14
2022-10-23T00:41:35.896Z,995.14
2022-10-23T00:41:46.197Z,995.14
2022-10-23T00:41:56.431Z,995.14
2022-10-23T00:42:06.692Z,995.14
2022-10-23T00:42:16.977Z,995.15
2022-10-23T00:42:27.287Z,995.14
2022-10-23T00:42:37.515Z,995.14
2022-10-23T00:42:47.772Z,995.14
2022-10-23T00:42:58.029Z,995.14
2022-10-23T00:43:08.291Z,995.14
2022-10-23T00:43:18.552Z,995.14
2022-10-23T00:43:28.819Z,995.14
2022-10-23T00:43:39.080Z,995.13
2022-10-23T00:43:49.332Z,995.13
2022-10-23T00:43:59.599Z,995.14
2022-10-23T00:44:09.861Z,995.14
2022-10-23T00:44:20.118Z,995.14
2022-10-23T00:44:30.379Z,995.15
2022-10-23T00:44:40.637Z,995.15
2022-10-23T00:44:50.919Z,995.15
2022-10-23T00:45:01.180Z,995.16
2022-10-23T00:45:11.460Z,995.16
2022-10-23T00:45:21.714Z,995.16
2022-10-23T00:45:31.972Z,995.16
2022-10-23T00:45:42.233Z,995.16
2022-10-23T00:45:52.531Z,995.17
2022-10-23T00:46:02.776Z,995.17
2022-10-23T00:46:13.031Z,995.17
2022-10-23T00:46:23.282Z,995.17
2022-10-23T00:46:33.585Z,995.17
2022-10-23T00:46:43.832Z,995.17
2022-10-23T00:46:54.101Z,995.17
2022-10-23T00:47:04.357Z,995.17
2022-10-23T00:47:14.629Z,995.17
2022-10-23T00:47:24.895Z,995.17
2022-10-23T00:47:35.152Z,995.17
2022-10-23T00:47:45.417Z,995.17
2022-10-23T00:47:55.678Z,995.17
2022-10-23T00:48:05.941Z,995.16
2022-10-23T00:48:16.233Z,995.16
2022-10-23T00:48:26.485Z,995.16
2022-10-23T00:48:36.760Z,995.16
2022-10-23T00:48:47.036Z,995.16
2022-10-23T00:48:57.340Z,995.16
2022-10-23T00:49:07.671Z,995.16
2022-10-23T00:49:17.908Z,995.16
2022-10-23T00:49:28.216Z,995.16
2022-10-23T00:49:41.987Z,995.17
2022-10-23T00:49:48.743Z,995.17
2022-10-23T00:49:58.999Z,995.17
2022-10-23T00:50:09.262Z,995.17
2022-10-23T00:50:19.524Z,995.16
2022-10-23T00:50:29.787Z,995.16
2022-10-23T00:50:40.088Z,995.16
2022-10-23T00:50:50.335Z,995.16
2022-10-23T00:51:00.621Z,995.17
2022-10-23T00:51:10.857Z,995.17
2022-10-23T00:51:21.127Z,995.17
2022-10-23T00:51:31.409Z,995.17
2022-10-23T00:51:41.742Z,995.17
2022-10-23T00:51:51.981Z,995.18
2022-10-23T00:52:02.236Z,995.18
2022-10-23T00:52:12.499Z,995.17
2022-10-23T00:52:22.771Z,995.17
2022-10-23T00:52:33.024Z,995.17
2022-10-23T00:52:43.570Z,995.16
2022-10-23T00:52:53.556Z,995.17
2022-10-23T00:53:03.844Z,995.16
2022-10-23T00:53:14.106Z,995.16
2022-10-23T00:53:24.355Z,995.16
2022-10-23T00:53:34.618Z,995.16
2022-10-23T00:53:46.250Z,995.16
2022-10-23T00:54:01.385Z,995.16
2022-10-23T00:54:23.895Z,995.15
2022-10-23T00:54:27.363Z,995.15
2022-10-23T00:54:36.746Z,995.15
2022-10-23T00:54:47.036Z,995.15
2022-10-23T00:54:57.327Z,995.15
2022-10-23T00:55:07.574Z,995.14
2022-10-23T00:55:17.830Z,995.15
2022-10-23T00:55:28.096Z,995.15
2022-10-23T00:55:38.389Z,995.15
2022-10-23T00:55:48.640Z,995.14
2022-10-23T00:55:58.918Z,995.13
2022-10-23T00:56:09.170Z,995.13
2022-10-23T00:56:19.424Z,995.13
2022-10-23T00:56:29.688Z,995.13
2022-10-23T00:56:39.959Z,995.12
2022-10-23T00:56:50.224Z,995.13
2022-10-23T00:57:00.488Z,995.13
2022-10-23T00:57:10.768Z,995.13
2022-10-23T00:57:21.077Z,995.13
2022-10-23T00:57:31.305Z,995.13
2022-10-23T00:57:41.596Z,995.13
2022-10-23T00:57:51.824Z,995.13
2022-10-23T00:58:02.095Z,995.13
2022-10-23T00:58:12.354Z,995.13
2022-10-23T00:58:22.616Z,995.14
2022-10-23T00:58:32.875Z,995.15
2022-10-23T00:58:43.178Z,995.14
2022-10-23T00:58:53.425Z,995.13
2022-10-23T00:59:03.676Z,995.12
2022-10-23T00:59:13.946Z,995.12
2022-10-23T00:59:24.215Z,995.12
2022-10-23T00:59:34.501Z,995.11
2022-10-23T00:59:44.807Z,995.12
2022-10-23T00:59:55.031Z,995.12
2022-10-23T01:00:05.298Z,995.11
2022-10-23T01:00:15.559Z,995.11
2022-10-23T01:00:25.824Z,995.11
2022-10-23T01:00:36.085Z,995.10
2022-10-23T01:00:46.354Z,995.10
2022-10-23T01:00:56.750Z,995.11
2022-10-23T01:01:07.098Z,995.11
2022-10-23T01:01:17.571Z,995.11
2022-10-23T01:01:27.773Z,995.12
2022-10-23T01:01:38.209Z,995.12
2022-10-23T01:01:48.527Z,995.12
2022-10-23T01:01:58.782Z,995.12
2022-10-23T01:02:09.101Z,995.12
2022-10-23T01:02:19.479Z,995.11
2022-10-23T01:02:29.638Z,995.11
2022-10-23T01:02:40.132Z,995.10
2022-10-23T01:02:50.120Z,995.11
2022-10-23T01:03:00.391Z,995.11
2022-10-23T01:03:10.652Z,995.11
2022-10-23T01:03:20.909Z,995.12
2022-10-23T01:03:31.162Z,995.13
2022-10-23T01:03:41.430Z,995.13
2022-10-23T01:03:51.687Z,995.13
2022-10-23T01:04:01.975Z,995.13
2022-10-23T01:04:12.249Z,995.13
2022-10-23T01:04:22.482Z,995.14
2022-10-23T01:04:32.766Z,995.14
2022-10-23T01:04:43.009Z,995.14
2022-10-23T01:04:53.270Z,995.15
2022-10-23T01:05:03.539Z,995.15
2022-10-23T01:05:13.796Z,995.14
2022-10-23T01:05:24.110Z,995.14
2022-10-23T01:05:34.421Z,995.13
2022-10-23T01:05:44.712Z,995.12
2022-10-23T01:05:54.969Z,995.14
2022-10-23T01:06:05.216Z,995.16
2022-10-23T01:06:15.470Z,995.17
2022-10-23T01:06:25.734Z,995.17
2022-10-23T01:06:36.028Z,995.16
2022-10-23T01:06:46.289Z,995.17
2022-10-23T01:06:56.546Z,995.17
2022-10-23T01:07:06.821Z,995.16
2022-10-23T01:07:17.063Z,995.16
2022-10-23T01:07:27.324Z,995.17
2022-10-23T01:07:37.591Z,995.18
2022-10-23T01:07:47.853Z,995.18
2022-10-23T01:07:58.276Z,995.18
2022-10-23T01:08:08.540Z,995.18
2022-10-23T01:08:18.827Z,995.18
2022-10-23T01:08:29.074Z,995.18
2022-10-23T01:08:39.339Z,995.19
2022-10-23T01:08:49.608Z,995.19
2022-10-23T01:08:59.883Z,995.19
2022-10-23T01:09:10.160Z,995.19
2022-10-23T01:09:20.423Z,995.19
2022-10-23T01:09:30.678Z,995.18
2022-10-23T01:09:40.938Z,995.17
2022-10-23T01:09:51.194Z,995.18
2022-10-23T01:10:01.457Z,995.18
2022-10-23T01:10:11.719Z,995.17
2022-10-23T01:10:21.972Z,995.18
2022-10-23T01:10:32.246Z,995.17
2022-10-23T01:10:42.516Z,995.18
2022-10-23T01:10:52.757Z,995.18
2022-10-23T01:11:03.046Z,995.18
2022-10-23T01:11:13.294Z,995.18
2022-10-23T01:11:23.557Z,995.18
2022-10-23T01:11:33.844Z,995.17
2022-10-23T01:11:44.105Z,995.17
2022-10-23T01:11:54.365Z,995.18
2022-10-23T01:12:04.629Z,995.17
2022-10-23T01:12:14.884Z,995.16
2022-10-23T01:12:25.163Z,995.15
2022-10-23T01:12:35.410Z,995.15
2022-10-23T01:12:45.675Z,995.14
2022-10-23T01:12:55.949Z,995.13
2022-10-23T01:13:06.209Z,995.12
2022-10-23T01:13:16.461Z,995.12
2022-10-23T01:13:26.747Z,995.11
2022-10-23T01:13:37.054Z,995.09
2022-10-23T01:13:47.281Z,995.08
2022-10-23T01:13:57.603Z,995.08
2022-10-23T01:14:07.843Z,995.08
2022-10-23T01:14:18.118Z,995.08
2022-10-23T01:14:28.393Z,995.07
2022-10-23T01:14:38.714Z,995.07
2022-10-23T01:14:48.964Z,995.07
2022-10-23T01:14:59.232Z,995.06
2022-10-23T01:15:09.502Z,995.06
2022-10-23T01:15:19.747Z,995.05
2022-10-23T01:15:30.005Z,995.05
2022-10-23T01:15:40.270Z,995.05
2022-10-23T01:15:50.526Z,995.05
2022-10-23T01:16:00.807Z,995.06
2022-10-23T01:16:11.111Z,995.06
2022-10-23T01:16:21.342Z,995.06
2022-10-23T01:16:31.605Z,995.05
2022-10-23T01:16:41.880Z,995.04
2022-10-23T01:16:52.139Z,995.04
2022-10-23T01:17:02.403Z,995.03
2022-10-23T01:17:12.668Z,995.03
2022-10-23T01:17:22.929Z,995.04
2022-10-23T01:17:33.187Z,995.04
2022-10-23T01:17:44.668Z,995.04
2022-10-23T01:17:53.809Z,995.05
2022-10-23T01:18:04.037Z,995.05
2022-10-23T01:18:14.311Z,995.06
2022-10-23T01:18:24.562Z,995.06
2022-10-23T01:18:34.858Z,995.06
2022-10-23T01:18:45.124Z,995.06
2022-10-23T01:18:55.347Z,995.07
2022-10-23T01:19:05.615Z,995.08
2022-10-23T01:19:15.879Z,995.07
2022-10-23T01:19:26.133Z,995.08
2022-10-23T01:19:36.408Z,995.08
2022-10-23T01:19:46.697Z,995.08
2022-10-23T01:19:56.984Z,995.08
2022-10-23T01:20:07.227Z,995.09
2022-10-23T01:20:17.484Z,995.09
2022-10-23T01:20:27.746Z,995.09
2022-10-23T01:20:38.030Z,995.10
2022-10-23T01:20:48.287Z,995.11
2022-10-23T01:20:58.535Z,995.10
2022-10-23T01:21:08.817Z,995.10
2022-10-23T01:21:19.067Z,995.10
2022-10-23T01:21:29.325Z,995.10
2022-10-23T01:21:39.608Z,995.09
2022-10-23T01:21:49.878Z,995.09
2022-10-23T01:22:00.160Z,995.09
2022-10-23T01:22:10.409Z,995.08
2022-10-23T01:22:20.759Z,995.08
2022-10-23T01:22:31.025Z,995.08
2022-10-23T01:22:41.564Z,995.08
2022-10-23T01:22:51.573Z,995.07
2022-10-23T01:23:01.856Z,995.06
2022-10-23T01:23:12.104Z,995.06
2022-10-23T01:23:22.365Z,995.05
2022-10-23T01:23:32.633Z,995.04
2022-10-23T01:23:42.890Z,995.03
2022-10-23T01:23:53.177Z,995.03
2022-10-23T01:24:03.419Z,995.04
2022-10-23T01:24:13.736Z,995.03
2022-10-23T01:24:23.965Z,995.02
2022-10-23T01:24:34.222Z,995.03
2022-10-23T01:24:44.485Z,995.03
2022-10-23T01:24:54.753Z,995.03
2022-10-23T01:25:05.017Z,995.02
2022-10-23T01:25:15.271Z,995.01
2022-10-23T01:25:25.523Z,995.02
2022-10-23T01:25:35.788Z,995.03
2022-10-23T01:25:46.065Z,995.03
2022-10-23T01:25:56.314Z,995.04
2022-10-23T01:26:06.580Z,995.04
2022-10-23T01:26:16.866Z,995.04
2022-10-23T01:26:27.103Z,995.04
2022-10-23T01:26:37.364Z,995.04
2022-10-23T01:26:47.632Z,995.04
2022-10-23T01:26:57.913Z,995.03
2022-10-23T01:27:08.187Z,995.03
2022-10-23T01:27:18.439Z,995.02
2022-10-23T01:27:28.702Z,995.02
2022-10-23T01:27:38.953Z,995.03
2022-10-23T01:27:49.222Z,995.03
2022-10-23T01:27:59.494Z,995.02
2022-10-23T01:28:09.755Z,995.02
2022-10-23T01:28:20.026Z,995.03
2022-10-23T01:28:30.303Z,995.03
2022-10-23T01:28:40.550Z,995.03
2022-10-23T01:28:50.807Z,995.03
2022-10-23T01:29:01.108Z,995.03
2022-10-23T01:29:11.353Z,995.03
2022-10-23T01:29:21.618Z,995.02
2022-10-23T01:29:31.877Z,995.01
2022-10-23T01:29:42.142Z,995.01
2022-10-23T01:29:52.417Z,995.01
2022-10-23T01:30:02.677Z,995.01
2022-10-23T01:30:12.952Z,995.02
2022-10-23T01:30:23.212Z,995.02
2022-10-23T01:30:33.527Z,995.03
2022-10-23T01:30:43.790Z,995.03
2022-10-23T01:30:54.049Z,995.03
2022-10-23T01:31:04.342Z,995.02
2022-10-23T01:31:14.599Z,995.02
2022-10-23T01:31:24.863Z,995.02
2022-10-23T01:31:35.111Z,995.01
2022-10-23T01:31:45.403Z,995.01
2022-10-23T01:31:55.630Z,995.01
2022-10-23T01:32:05.926Z,995.01
2022-10-23T01:32:16.173Z,995.00
2022-10-23T01:32:26.431Z,994.99
2022-10-23T01:32:36.697Z,995.00
2022-10-23T01:32:46.960Z,994.99
2022-10-23T01:32:57.220Z,994.99
2022-10-23T01:33:07.484Z,994.99
2022-10-23T01:33:17.754Z,994.99
2022-10-23T01:33:28.010Z,994.99
2022-10-23T01:33:38.282Z,995.00
2022-10-23T01:33:48.549Z,995.00
2022-10-23T01:33:58.813Z,995.00
2022-10-23T01:34:09.089Z,995.00
2022-10-23T01:34:19.334Z,995.00
2022-10-23T01:34:29.607Z,994.99
2022-10-23T01:34:39.919Z,994.99
2022-10-23T01:34:50.140Z,994.98
2022-10-23T01:35:00.403Z,994.98
2022-10-23T01:35:10.718Z,994.98
2022-10-23T01:35:20.957Z,994.98
2022-10-23T01:35:31.230Z,994.97
2022-10-23T01:35:41.480Z,994.97
2022-10-23T01:35:51.736Z,994.97
2022-10-23T01:36:02.004Z,994.98
2022-10-23T01:36:12.284Z,994.98
2022-10-23T01:36:22.528Z,994.98
2022-10-23T01:36:32.804Z,994.98
2022-10-23T01:36:43.076Z,994.98
2022-10-23T01:36:53.317Z,994.98
2022-10-23T01:37:03.611Z,994.97
2022-10-23T01:37:13.876Z,994.96
2022-10-23T01:37:24.147Z,994.94
2022-10-23T01:37:34.413Z,994.93
2022-10-23T01:37:44.696Z,994.92
2022-10-23T01:37:54.939Z,994.91
2022-10-23T01:38:05.201Z,994.91
2022-10-23T01:38:15.453Z,994.91
2022-10-23T01:38:25.723Z,994.92
2022-10-23T01:38:35.988Z,994.92
2022-10-23T01:38:46.253Z,994.90
2022-10-23T01:38:56.584Z,994.89
2022-10-23T01:39:06.812Z,994.89
2022-10-23T01:39:17.069Z,994.88
2022-10-23T01:39:27.335Z,994.88
2022-10-23T01:39:37.601Z,994.87
2022-10-23T01:39:47.863Z,994.87
2022-10-23T01:39:58.142Z,994.87
2022-10-23T01:40:08.401Z,994.87
2022-10-23T01:40:18.699Z,994.87
2022-10-23T01:40:28.936Z,994.87
2022-10-23T01:40:39.196Z,994.87
2022-10-23T01:40:49.472Z,994.87
2022-10-23T01:40:59.757Z,994.86
2022-10-23T01:41:09.985Z,994.86
2022-10-23T01:41:20.246Z,994.86
2022-10-23T01:41:30.523Z,994.86
2022-10-23T01:41:40.799Z,994.86
2022-10-23T01:41:51.052Z,994.86
2022-10-23T01:42:01.311Z,994.86
2022-10-23T01:42:11.595Z,994.87
2022-10-23T01:42:21.862Z,994.87
2022-10-23T01:42:32.124Z,994.87
2022-10-23T01:42:42.698Z,994.87
2022-10-23T01:42:52.654Z,994.87
2022-10-23T01:43:02.943Z,994.87
2022-10-23T01:43:13.184Z,994.87
2022-10-23T01:43:23.448Z,994.88
2022-10-23T01:43:33.744Z,994.88
2022-10-23T01:43:43.999Z,994.88
2022-10-23T01:43:54.262Z,994.87
2022-10-23T01:44:04.535Z,994.87
2022-10-23T01:44:14.831Z,994.87
2022-10-23T01:44:25.064Z,994.87
2022-10-23T01:44:35.325Z,994.87
2022-10-23T01:44:45.587Z,994.86
2022-10-23T01:44:55.897Z,994.86
2022-10-23T01:45:06.143Z,994.86
2022-10-23T01:45:16.417Z,994.86
2022-10-23T01:45:26.641Z,994.86
2022-10-23T01:45:36.930Z,994.86
2022-10-23T01:45:47.187Z,994.85
2022-10-23T01:45:57.454Z,994.85
2022-10-23T01:46:07.727Z,994.85
2022-10-23T01:46:17.984Z,994.84
2022-10-23T01:46:28.256Z,994.84
2022-10-23T01:46:38.525Z,994.84
2022-10-23T01:46:48.772Z,994.84
2022-10-23T01:46:59.038Z,994.83
2022-10-23T01:47:09.373Z,994.83
2022-10-23T01:47:19.651Z,994.83
2022-10-23T01:47:29.917Z,994.83
2022-10-23T01:47:40.297Z,994.82
2022-10-23T01:47:50.608Z,994.82
2022-10-23T01:48:00.873Z,994.82
2022-10-23T01:48:11.144Z,994.81
2022-10-23T01:48:21.413Z,994.81
2022-10-23T01:48:31.674Z,994.80
2022-10-23T01:48:41.977Z,994.79
2022-10-23T01:48:52.234Z,994.78
2022-10-23T01:49:02.460Z,994.77
2022-10-23T01:49:12.742Z,994.76
2022-10-23T01:49:22.997Z,994.76
2022-10-23T01:49:33.286Z,994.76
2022-10-23T01:49:43.528Z,994.75
2022-10-23T01:49:53.792Z,994.74
2022-10-23T01:50:04.067Z,994.74
2022-10-23T01:50:14.316Z,994.74
2022-10-23T01:50:24.582Z,994.73
2022-10-23T01:50:34.841Z,994.72
2022-10-23T01:50:45.107Z,994.72
2022-10-23T01:50:55.421Z,994.71
2022-10-23T01:51:05.687Z,994.71
2022-10-23T01:51:15.952Z,994.71
2022-10-23T01:51:26.195Z,994.70
2022-10-23T01:51:36.463Z,994.70
2022-10-23T01:51:46.729Z,994.71
2022-10-23T01:51:56.986Z,994.71
2022-10-23T01:52:07.250Z,994.70
2022-10-23T01:52:17.574Z,994.70
2022-10-23T01:52:27.817Z,994.70
2022-10-23T01:52:38.065Z,994.70
2022-10-23T01:52:48.327Z,994.70
2022-10-23T01:52:58.600Z,994.71
2022-10-23T01:53:08.865Z,994.70
2022-10-23T01:53:19.151Z,994.70
2022-10-23T01:53:29.399Z,994.70
2022-10-23T01:53:39.662Z,994.70
2022-10-23T01:53:49.928Z,994.69
2022-10-23T01:54:00.202Z,994.69
2022-10-23T01:54:13.257Z,994.69
2022-10-23T01:54:20.709Z,994.69
2022-10-23T01:54:30.974Z,994.69
2022-10-23T01:54:41.242Z,994.69
2022-10-23T01:54:51.494Z,994.69
2022-10-23T01:55:01.805Z,994.69
2022-10-23T01:55:12.085Z,994.69
2022-10-23T01:55:22.342Z,994.68
2022-10-23T01:55:32.675Z,994.68
2022-10-23T01:55:42.958Z,994.69
2022-10-23T01:55:53.194Z,994.69
2022-10-23T01:56:03.448Z,994.68
2022-10-23T01:56:13.763Z,994.67
2022-10-23T01:56:24.012Z,994.67
2022-10-23T01:56:34.283Z,994.67
2022-10-23T01:56:44.665Z,994.67
2022-10-23T01:56:54.979Z,994.67
2022-10-23T01:57:05.204Z,994.66
2022-10-23T01:57:15.574Z,994.66
2022-10-23T01:57:25.951Z,994.66
2022-10-23T01:57:36.194Z,994.66
2022-10-23T01:57:46.470Z,994.65
2022-10-23T01:57:56.756Z,994.65
2022-10-23T01:58:06.994Z,994.65
2022-10-23T01:58:17.255Z,994.65
2022-10-23T01:58:27.524Z,994.64
2022-10-23T01:58:37.781Z,994.64
2022-10-23T01:58:48.047Z,994.64
2022-10-23T01:58:58.330Z,994.63
2022-10-23T01:59:08.582Z,994.63
2022-10-23T01:59:18.854Z,994.63
2022-10-23T01:59:29.103Z,994.63
2022-10-23T01:59:39.358Z,994.63
2022-10-23T01:59:49.632Z,994.63
2022-10-23T01:59:59.936Z,994.62
2022-10-23T02:00:10.170Z,994.63
2022-10-23T02:00:20.446Z,994.62
2022-10-23T02:00:30.702Z,994.62
2022-10-23T02:00:40.968Z,994.61
2022-10-23T02:00:51.235Z,994.61
2022-10-23T02:01:01.538Z,994.61
2022-10-23T02:01:11.844Z,994.61
2022-10-23T02:01:22.300Z,994.61
2022-10-23T02:01:32.557Z,994.61
2022-10-23T02:01:42.683Z,994.60
2022-10-23T02:01:53.172Z,994.60
2022-10-23T02:02:03.435Z,994.59
2022-10-23T02:02:13.782Z,994.59
2022-10-23T02:02:23.897Z,994.58
2022-10-23T02:02:34.209Z,994.57
2022-10-23T02:02:44.530Z,994.58
2022-10-23T02:02:54.770Z,994.58
2022-10-23T02:03:05.034Z,994.57
2022-10-23T02:03:15.295Z,994.57
2022-10-23T02:03:25.663Z,994.56
2022-10-23T02:03:35.973Z,994.56
2022-10-23T02:03:46.206Z,994.56
2022-10-23T02:03:56.464Z,994.56
2022-10-23T02:04:06.702Z,994.55
2022-10-23T02:04:16.969Z,994.55
2022-10-23T02:04:27.230Z,994.54
2022-10-23T02:04:37.494Z,994.54
2022-10-23T02:04:47.757Z,994.54
2022-10-23T02:04:58.024Z,994.53
2022-10-23T02:05:08.280Z,994.52
2022-10-23T02:05:18.554Z,994.52
2022-10-23T02:05:28.808Z,994.51
2022-10-23T02:05:39.062Z,994.52
2022-10-23T02:05:49.327Z,994.52
2022-10-23T02:05:59.594Z,994.51
2022-10-23T02:06:09.862Z,994.51
2022-10-23T02:06:20.137Z,994.51
2022-10-23T02:06:30.403Z,994.51
2022-10-23T02:06:40.726Z,994.51
2022-10-23T02:06:50.944Z,994.51
2022-10-23T02:07:01.200Z,994.50
2022-10-23T02:07:11.472Z,994.49
2022-10-23T02:07:21.739Z,994.49
2022-10-23T02:07:32.006Z,994.48
2022-10-23T02:07:42.475Z,994.48
2022-10-23T02:07:52.685Z,994.49
2022-10-23T02:08:02.939Z,994.50
2022-10-23T02:08:13.205Z,994.50
2022-10-23T02:08:23.475Z,994.50
2022-10-23T02:08:33.729Z,994.50
2022-10-23T02:08:43.998Z,994.50